Time;durP1;ratioP1;P1;durP2;ratioP2;P2;SDS_P1;SDS_P2;PMS_P1;PMS_P2;Temp;Humidity;BMP_temperature;BMP_pressure;BME280_temperature;BME280_humidity;BME280_pressure;Samples;Min_cycle;Max_cycle;Signal;HPM_P1;HPM_P2
2022/08/19 00:00:23;;;;;;;20.95;12.77;;;20.20;72.10;;;;;;5114854;28;20020;-73
2022/08/19 00:02:49;;;;;;;18.95;12.00;;;20.20;72.10;;;;;;5114854;28;20027;-73
2022/08/19 00:05:16;;;;;;;16.25;11.55;;;20.20;72.30;;;;;;5114757;28;20103;-73
2022/08/19 00:07:43;;;;;;;16.30;11.30;;;20.30;71.90;;;;;;5114668;28;20057;-73
2022/08/19 00:10:11;;;;;;;13.75;9.70;;;20.30;71.70;;;;;;5114494;28;20048;-73
2022/08/19 00:12:37;;;;;;;16.63;11.52;;;20.20;70.80;;;;;;5114666;28;20044;-73
2022/08/19 00:15:06;;;;;;;15.80;11.52;;;20.10;71.90;;;;;;5114564;28;20031;-73
2022/08/19 00:17:32;;;;;;;18.85;12.05;;;20.10;71.80;;;;;;5114692;28;20020;-73
2022/08/19 00:19:57;;;;;;;16.23;11.10;;;20.10;72.10;;;;;;5114481;28;20032;-73
2022/08/19 00:22:23;;;;;;;18.50;11.55;;;20.10;72.10;;;;;;5114479;28;20029;-73
2022/08/19 00:24:49;;;;;;;15.68;10.45;;;20.10;72.50;;;;;;5114439;28;20032;-73
2022/08/19 00:27:14;;;;;;;18.05;11.77;;;20.10;72.20;;;;;;5114374;28;20059;-73
2022/08/19 00:29:40;;;;;;;18.35;12.13;;;20.20;72.00;;;;;;5114172;28;20036;-73
2022/08/19 00:32:06;;;;;;;15.85;11.00;;;20.10;71.90;;;;;;5114300;28;20024;-73
2022/08/19 00:34:32;;;;;;;18.23;10.57;;;20.20;71.90;;;;;;5114197;28;20028;-73
2022/08/19 00:36:59;;;;;;;16.38;10.77;;;20.10;72.10;;;;;;5114243;28;20068;-73
2022/08/19 00:39:25;;;;;;;16.10;10.95;;;20.10;72.50;;;;;;5114164;28;20031;-73
2022/08/19 00:41:51;;;;;;;16.33;10.15;;;20.10;72.40;;;;;;5114155;28;20020;-73
2022/08/19 00:44:22;;;;;;;13.63;10.10;;;19.90;72.30;;;;;;5114061;28;20024;-73
2022/08/19 00:46:51;;;;;;;16.77;10.93;;;20.00;71.90;;;;;;5114212;28;20047;-73
2022/08/19 00:49:50;;;;;;;18.10;12.20;;;19.80;71.90;;;;;;5113943;28;20035;-73
2022/08/19 00:52:33;;;;;;;16.17;11.30;;;19.90;71.70;;;;;;5111477;28;20029;-73
2022/08/19 00:54:59;;;;;;;15.52;10.77;;;19.90;72.00;;;;;;5114079;28;20046;-73
2022/08/19 00:57:36;;;;;;;16.95;11.48;;;19.90;72.10;;;;;;5113886;28;20027;-73
2022/08/19 01:00:07;;;;;;;19.17;12.65;;;19.90;71.90;;;;;;5113928;28;20091;-73
2022/08/19 01:02:32;;;;;;;18.45;11.65;;;19.90;71.80;;;;;;5113866;28;20045;-73
2022/08/19 01:05:02;;;;;;;19.70;11.95;;;19.80;71.70;;;;;;5113765;28;20024;-73
2022/08/19 01:07:27;;;;;;;20.38;12.65;;;19.90;71.60;;;;;;5113708;28;20046;-73
2022/08/19 01:09:53;;;;;;;19.63;12.05;;;19.90;71.30;;;;;;5112658;28;20036;-73
2022/08/19 01:12:19;;;;;;;19.25;12.80;;;19.80;70.90;;;;;;5113671;28;20067;-73
2022/08/19 01:14:45;;;;;;;18.77;12.20;;;19.70;71.30;;;;;;5113634;28;20020;-73
2022/08/19 01:17:12;;;;;;;19.73;12.02;;;19.60;71.70;;;;;;5113740;28;20027;-73
2022/08/19 01:19:41;;;;;;;18.92;12.52;;;19.60;71.70;;;;;;5113696;28;20061;-73
2022/08/19 01:22:35;;;;;;;20.55;12.25;;;19.70;71.50;;;;;;5113571;28;20057;-73
2022/08/19 01:25:01;;;;;;;16.55;10.38;;;19.70;71.50;;;;;;5113505;28;20016;-73
2022/08/19 01:27:36;;;;;;;16.08;10.27;;;19.60;71.30;;;;;;5113498;28;20035;-73
2022/08/19 01:30:03;;;;;;;17.27;10.55;;;19.50;70.70;;;;;;5113355;28;20059;-73
2022/08/19 01:32:30;;;;;;;16.60;10.57;;;19.40;71.20;;;;;;5113450;28;20029;-73
2022/08/19 01:34:55;;;;;;;18.50;12.07;;;19.30;71.60;;;;;;5113447;28;20028;-73
2022/08/19 01:37:21;;;;;;;19.58;12.10;;;19.30;71.70;;;;;;5113434;28;20115;-73
2022/08/19 01:39:47;;;;;;;15.07;11.00;;;19.40;71.90;;;;;;5113350;28;20116;-73
2022/08/19 01:42:12;;;;;;;16.05;10.55;;;19.40;71.90;;;;;;5113514;28;20028;-73
2022/08/19 01:44:41;;;;;;;18.23;11.25;;;19.30;71.40;;;;;;5113474;28;20028;-73
2022/08/19 01:47:09;;;;;;;17.30;10.73;;;19.20;71.50;;;;;;5112315;28;20031;-73
2022/08/19 01:49:35;;;;;;;20.80;11.85;;;19.10;71.90;;;;;;5112263;28;20032;-74
2022/08/19 01:52:01;;;;;;;19.15;12.20;;;19.20;72.10;;;;;;5113266;28;20023;-73
2022/08/19 01:54:26;;;;;;;18.50;11.93;;;19.20;72.20;;;;;;5113381;28;20025;-73
2022/08/19 01:56:59;;;;;;;18.90;11.98;;;19.00;72.60;;;;;;5113201;28;20032;-73
2022/08/19 01:59:24;;;;;;;;;;;19.00;72.70;;;;;;5113827;28;20059;-73
2022/08/19 02:01:50;;;;;;;22.08;11.70;;;18.90;73.20;;;;;;5113312;28;19908;-73
2022/08/19 02:04:16;;;;;;;17.30;11.30;;;18.90;73.50;;;;;;5113272;28;20028;-73
2022/08/19 02:06:41;;;;;;;18.48;11.30;;;19.00;73.30;;;;;;5113138;28;20032;-73
2022/08/19 02:09:08;;;;;;;17.33;11.15;;;19.00;73.00;;;;;;5112951;28;20108;-73
2022/08/19 02:11:36;;;;;;;14.98;10.00;;;19.00;73.10;;;;;;5113113;28;20020;-73
2022/08/19 02:14:06;;;;;;;14.73;10.23;;;19.00;72.90;;;;;;5113102;28;20052;-73
2022/08/19 02:16:32;;;;;;;17.20;10.82;;;19.10;73.10;;;;;;5113035;28;20016;-73
2022/08/19 02:19:01;;;;;;;15.40;11.02;;;18.90;72.50;;;;;;5113019;28;20032;-73
2022/08/19 02:21:28;;;;;;;19.42;11.70;;;18.90;73.10;;;;;;5114866;28;20077;-73
2022/08/19 02:23:55;;;;;;;17.98;11.40;;;18.80;73.40;;;;;;5116802;28;20027;-73
2022/08/19 02:26:21;;;;;;;18.13;11.80;;;18.70;74.00;;;;;;5116759;28;20020;-73
2022/08/19 02:28:48;;;;;;;16.15;10.88;;;18.70;74.10;;;;;;5116540;28;20035;-73
2022/08/19 02:31:17;;;;;;;20.17;11.70;;;18.80;73.80;;;;;;5116651;28;20024;-73
2022/08/19 02:33:43;;;;;;;21.02;11.98;;;19.00;73.70;;;;;;5116598;28;20059;-73
2022/08/19 02:36:11;;;;;;;16.65;10.55;;;19.00;73.40;;;;;;5116547;28;20024;-73
2022/08/19 02:38:37;;;;;;;16.70;10.65;;;19.00;73.40;;;;;;5116486;28;20058;-73
2022/08/19 02:41:14;;;;;;;16.80;10.82;;;19.00;73.00;;;;;;5116451;28;20020;-73
2022/08/19 02:43:41;;;;;;;17.13;10.88;;;19.00;72.80;;;;;;5115480;28;20043;-73
2022/08/19 02:46:24;;;;;;;15.88;10.20;;;19.00;72.70;;;;;;5116350;28;20035;-73
2022/08/19 02:48:57;;;;;;;16.23;11.02;;;19.00;72.70;;;;;;5116287;28;20035;-73
2022/08/19 02:51:29;;;;;;;17.63;11.55;;;18.90;73.20;;;;;;5116394;28;20026;-73
2022/08/19 02:53:55;;;;;;;19.38;12.00;;;18.90;73.50;;;;;;5116257;28;20016;-73
2022/08/19 02:56:21;;;;;;;19.60;12.20;;;18.90;73.70;;;;;;5116139;28;20079;-73
2022/08/19 02:58:48;;;;;;;20.73;12.23;;;19.00;73.60;;;;;;5116108;28;20031;-73
2022/08/19 03:01:24;;;;;;;19.50;12.65;;;19.10;73.90;;;;;;5116082;28;20050;-73
2022/08/19 03:03:50;;;;;;;19.67;12.15;;;19.00;74.40;;;;;;5116054;28;20020;-73
2022/08/19 03:06:16;;;;;;;17.92;11.13;;;18.90;74.20;;;;;;5115960;28;20031;-73
2022/08/19 03:08:44;;;;;;;19.55;11.38;;;18.80;74.20;;;;;;5115800;28;20044;-73
2022/08/19 03:11:20;;;;;;;20.42;12.05;;;18.70;74.10;;;;;;5115903;28;20028;-73
2022/08/19 03:13:48;;;;;;;19.20;11.98;;;18.80;73.80;;;;;;5115870;28;20024;-73
2022/08/19 03:16:15;;;;;;;18.67;11.57;;;18.80;74.00;;;;;;5115777;28;20023;-73
2022/08/19 03:18:41;;;;;;;17.75;10.77;;;18.70;73.60;;;;;;5115741;28;20028;-73
2022/08/19 03:21:07;;;;;;;18.92;11.13;;;18.70;74.20;;;;;;5115666;28;20057;-73
2022/08/19 03:23:33;;;;;;;16.25;11.15;;;18.70;73.50;;;;;;5115765;28;20036;-73
2022/08/19 03:26:04;;;;;;;17.90;11.60;;;18.70;73.50;;;;;;5115601;28;20051;-73
2022/08/19 03:28:30;;;;;;;18.40;11.05;;;18.70;73.50;;;;;;5115471;28;20024;-73
2022/08/19 03:31:08;;;;;;;19.92;12.27;;;18.70;74.30;;;;;;5115485;28;20024;-73
2022/08/19 03:33:34;;;;;;;22.98;14.07;;;18.70;73.30;;;;;;5114678;28;20024;-73
2022/08/19 03:36:04;;;;;;;25.10;14.32;;;18.70;73.90;;;;;;5115401;28;20371;-73
2022/08/19 03:38:32;;;;;;;23.80;14.35;;;18.70;74.70;;;;;;5115592;28;20024;-73
2022/08/19 03:40:57;;;;;;;23.23;14.25;;;18.80;74.80;;;;;;5115263;28;20054;-73
2022/08/19 03:43:24;;;;;;;23.95;14.23;;;18.80;74.80;;;;;;5115233;28;20024;-73
2022/08/19 03:46:03;;;;;;;23.38;14.23;;;18.80;74.80;;;;;;5115195;28;20098;-73
2022/08/19 03:48:30;;;;;;;25.58;14.00;;;18.80;75.10;;;;;;5115106;28;20388;-73
2022/08/19 03:50:58;;;;;;;23.77;14.43;;;18.80;75.50;;;;;;5115122;28;20028;-73
2022/08/19 03:53:23;;;;;;;25.58;14.68;;;18.80;75.60;;;;;;5115037;28;20021;-73
2022/08/19 03:55:49;;;;;;;22.30;13.25;;;18.80;75.80;;;;;;5115004;28;20111;-73
2022/08/19 03:58:14;;;;;;;23.10;14.23;;;18.80;75.70;;;;;;5114926;28;20042;-73
2022/08/19 04:00:43;;;;;;;24.05;13.85;;;18.70;76.00;;;;;;5114920;28;20028;-73
2022/08/19 04:03:08;;;;;;;24.50;13.68;;;18.70;76.00;;;;;;5114865;28;20076;-73
2022/08/19 04:05:34;;;;;;;20.17;12.93;;;18.80;75.80;;;;;;5114809;28;20035;-73
2022/08/19 04:08:00;;;;;;;21.83;12.82;;;18.80;75.80;;;;;;5114681;28;20028;-73
2022/08/19 04:10:27;;;;;;;20.67;13.05;;;18.80;75.60;;;;;;5114560;28;20063;-73
2022/08/19 04:12:53;;;;;;;23.45;13.23;;;18.80;75.00;;;;;;5114688;28;20027;-73
2022/08/19 04:15:20;;;;;;;23.15;12.77;;;18.70;74.70;;;;;;5114619;28;20020;-73
2022/08/19 04:17:46;;;;;;;22.58;13.63;;;18.50;75.20;;;;;;5114598;28;20016;-73
2022/08/19 04:20:11;;;;;;;28.80;14.82;;;18.50;75.80;;;;;;5114539;28;20032;-73
2022/08/19 04:22:37;;;;;;;24.63;13.75;;;18.50;76.10;;;;;;5114635;28;20032;-73
2022/08/19 04:25:03;;;;;;;24.33;14.70;;;18.60;76.30;;;;;;5114421;28;20085;-73
2022/08/19 04:27:29;;;;;;;24.90;15.23;;;18.50;76.60;;;;;;5114461;28;20028;-73
2022/08/19 04:29:54;;;;;;;27.48;15.25;;;18.50;76.90;;;;;;5114186;28;20068;-73
2022/08/19 04:32:20;;;;;;;20.02;12.93;;;18.50;77.10;;;;;;5114306;28;20020;-73
2022/08/19 04:34:46;;;;;;;22.60;13.07;;;18.50;76.40;;;;;;5114272;28;20031;-73
2022/08/19 04:37:12;;;;;;;25.10;14.00;;;18.50;76.40;;;;;;5114237;28;20469;-73
2022/08/19 04:42:38;;;;;;;24.23;14.25;;;18.50;76.30;;;;;;5114397;28;20107;-73
2022/08/19 04:45:10;;;;;;;26.63;14.05;;;18.60;77.40;;;;;;5114207;28;20032;-74
2022/08/19 04:47:41;;;;;;;32.20;15.68;;;18.60;76.60;;;;;;5114087;28;20084;-74
2022/08/19 04:50:11;;;;;;;28.88;14.98;;;18.60;76.80;;;;;;5113959;28;20024;-73
2022/08/19 04:52:41;;;;;;;27.05;14.85;;;18.60;76.70;;;;;;5114003;28;20039;-73
2022/08/19 04:55:08;;;;;;;26.98;15.30;;;18.70;76.70;;;;;;5113966;28;20054;-73
2022/08/19 04:57:35;;;;;;;25.75;14.25;;;18.60;76.80;;;;;;5113974;28;20056;-73
2022/08/19 05:00:01;;;;;;;26.35;14.38;;;18.60;77.00;;;;;;5113880;28;20028;-74
2022/08/19 05:02:26;;;;;;;28.27;14.38;;;18.70;77.90;;;;;;5113812;28;20024;-74
2022/08/19 05:05:01;;;;;;;29.90;15.73;;;18.80;76.90;;;;;;5113784;28;20036;-73
2022/08/19 05:07:27;;;;;;;29.13;14.77;;;18.80;77.10;;;;;;5113772;28;20021;-74
2022/08/19 05:09:52;;;;;;;27.90;15.70;;;18.80;77.20;;;;;;5113435;28;20059;-74
2022/08/19 05:12:19;;;;;;;30.38;14.32;;;18.80;77.10;;;;;;5113692;28;20050;-73
2022/08/19 05:14:46;;;;;;;29.40;15.02;;;18.90;77.30;;;;;;5113643;28;20035;-74
2022/08/19 05:17:12;;;;;;;28.23;14.57;;;18.90;77.40;;;;;;5113620;28;20028;-73
2022/08/19 05:22:37;;;;;;;28.77;13.70;;;18.90;77.70;;;;;;5113834;28;20039;-73
2022/08/19 05:25:07;;;;;;;25.15;14.23;;;18.90;77.80;;;;;;5113672;28;20039;-73
2022/08/19 05:27:33;;;;;;;28.00;14.07;;;18.80;77.70;;;;;;5113543;28;20038;-73
2022/08/19 05:29:59;;;;;;;27.92;14.68;;;18.80;77.70;;;;;;5113355;28;20020;-73
2022/08/19 05:32:25;;;;;;;30.42;15.88;;;18.90;77.90;;;;;;5113405;28;20039;-73
2022/08/19 05:34:50;;;;;;;32.13;16.05;;;18.90;78.30;;;;;;5112637;28;20028;-74
2022/08/19 05:37:16;;;;;;;32.08;16.33;;;18.90;78.50;;;;;;5113400;28;20080;-73
2022/08/19 05:39:42;;;;;;;31.20;16.80;;;18.90;78.70;;;;;;5112459;28;20115;-74
2022/08/19 05:42:10;;;;;;;31.60;17.08;;;19.00;79.20;;;;;;5113489;28;20062;-73
2022/08/19 05:44:39;;;;;;;35.13;18.30;;;18.90;79.90;;;;;;5113516;28;20452;-73
2022/08/19 05:47:08;;;;;;;33.97;18.13;;;18.90;80.70;;;;;;5113293;28;20021;-74
2022/08/19 05:49:35;;;;;;;39.08;18.98;;;18.90;81.00;;;;;;5113418;28;20020;-73
2022/08/19 05:52:04;;;;;;;40.42;19.17;;;18.90;82.40;;;;;;5113296;28;20024;-73
2022/08/19 05:54:30;;;;;;;36.28;18.33;;;18.80;82.20;;;;;;5113240;28;20020;-73
2022/08/19 05:56:56;;;;;;;37.55;18.95;;;18.90;82.50;;;;;;5116057;28;20024;-73
2022/08/19 05:59:23;;;;;;;40.88;19.52;;;19.00;82.60;;;;;;5117269;28;20036;-73
2022/08/19 06:01:51;;;;;;;39.25;18.77;;;19.00;82.60;;;;;;5117218;28;20028;-73
2022/08/19 06:04:21;;;;;;;36.80;19.50;;;19.00;82.90;;;;;;5117168;28;20028;-73
2022/08/19 06:06:48;;;;;;;39.90;20.35;;;19.00;83.00;;;;;;5117170;28;20028;-74
2022/08/19 06:09:14;;;;;;;47.25;22.70;;;19.10;83.00;;;;;;5116832;28;20052;-74
2022/08/19 06:11:54;;;;;;;46.13;22.02;;;19.10;83.70;;;;;;5117039;28;20038;-73
2022/08/19 06:14:22;;;;;;;47.13;22.50;;;19.10;83.70;;;;;;5117167;28;20023;-73
2022/08/19 06:16:52;;;;;;;48.50;23.75;;;19.10;83.70;;;;;;5116975;28;20028;-73
2022/08/19 06:19:19;;;;;;;54.10;23.90;;;19.10;84.10;;;;;;5116938;28;20024;-73
2022/08/19 06:21:47;;;;;;;53.17;23.60;;;19.10;83.90;;;;;;5116838;28;20024;-74
2022/08/19 06:24:15;;;;;;;50.17;24.55;;;19.20;83.90;;;;;;5116776;28;20024;-73
2022/08/19 06:26:46;;;;;;;48.47;23.08;;;19.20;83.80;;;;;;5116761;28;20049;-73
2022/08/19 06:29:14;;;;;;;51.67;23.98;;;19.20;83.70;;;;;;5116619;28;20020;-74
2022/08/19 06:31:43;;;;;;;53.40;24.75;;;19.20;83.60;;;;;;5116662;28;20020;-73
2022/08/19 06:34:09;;;;;;;53.72;24.95;;;19.20;83.80;;;;;;5116632;28;20024;-73
2022/08/19 06:36:47;;;;;;;50.38;24.95;;;19.20;83.60;;;;;;5116552;28;20027;-73
2022/08/19 06:39:19;;;;;;;50.88;24.50;;;19.20;84.00;;;;;;5116529;28;20020;-73
2022/08/19 06:41:49;;;;;;;55.50;25.52;;;19.20;83.60;;;;;;5116571;28;20028;-73
2022/08/19 06:44:15;;;;;;;51.42;25.02;;;19.20;83.50;;;;;;5116496;28;20028;-73
2022/08/19 06:46:42;;;;;;;54.10;23.83;;;19.20;83.50;;;;;;5116359;28;20035;-73
2022/08/19 06:49:11;;;;;;;49.83;23.65;;;19.30;83.60;;;;;;5116380;28;20020;-73
2022/08/19 06:51:37;;;;;;;56.53;25.15;;;19.30;83.20;;;;;;5116284;28;20027;-73
2022/08/19 06:54:03;;;;;;;55.60;25.42;;;19.40;83.50;;;;;;5116322;28;20024;-73
2022/08/19 06:56:38;;;;;;;48.15;23.67;;;19.40;83.40;;;;;;5116179;28;20054;-74
2022/08/19 06:59:11;;;;;;;51.75;24.13;;;19.50;83.70;;;;;;5116207;28;20024;-73
2022/08/19 07:01:46;;;;;;;49.85;23.70;;;19.50;83.20;;;;;;5116120;28;20092;-73
2022/08/19 07:04:15;;;;;;;50.50;24.00;;;19.60;83.20;;;;;;5116129;28;20016;-73
2022/08/19 07:06:41;;;;;;;53.20;25.60;;;19.60;83.30;;;;;;5115627;28;20028;-73
2022/08/19 07:09:08;;;;;;;62.05;26.77;;;19.60;83.10;;;;;;5114865;28;20048;-73
2022/08/19 07:11:34;;;;;;;52.40;25.73;;;19.80;84.00;;;;;;5116025;28;20102;-73
2022/08/19 07:14:00;;;;;;;52.35;24.90;;;19.80;83.50;;;;;;5115809;28;20020;-73
2022/08/19 07:16:27;;;;;;;53.80;24.73;;;19.80;83.10;;;;;;5115810;28;20021;-74
2022/08/19 07:18:53;;;;;;;50.42;24.80;;;19.80;83.00;;;;;;5115760;28;20084;-73
2022/08/19 07:21:22;;;;;;;48.33;25.38;;;19.90;82.60;;;;;;5115717;28;20062;-74
2022/08/19 07:23:48;;;;;;;54.42;26.10;;;19.90;82.80;;;;;;5115665;28;20091;-74
2022/08/19 07:26:23;;;;;;;48.75;25.42;;;19.90;82.80;;;;;;5115618;28;20024;-74
2022/08/19 07:28:49;;;;;;;51.83;24.15;;;19.90;82.60;;;;;;5115468;28;20032;-74
2022/08/19 07:31:18;;;;;;;52.05;24.13;;;20.00;82.40;;;;;;5115511;28;20020;-74
2022/08/19 07:33:46;;;;;;;49.20;24.80;;;20.10;82.40;;;;;;5114425;28;20040;-73
2022/08/19 07:36:16;;;;;;;45.75;23.13;;;20.10;83.40;;;;;;5115450;28;20016;-73
2022/08/19 07:38:44;;;;;;;48.25;23.40;;;20.20;82.40;;;;;;5115432;28;20107;-74
2022/08/19 07:41:13;;;;;;;46.05;22.83;;;20.20;82.40;;;;;;5115239;28;20027;-73
2022/08/19 07:43:40;;;;;;;45.33;22.40;;;20.20;82.10;;;;;;5115255;28;20375;-73
2022/08/19 07:46:06;;;;;;;51.50;24.25;;;20.30;82.10;;;;;;5115248;28;20049;-74
2022/08/19 07:48:32;;;;;;;48.25;23.85;;;20.30;81.90;;;;;;5115125;28;20031;-74
2022/08/19 07:51:01;;;;;;;47.42;24.08;;;20.40;82.10;;;;;;5114147;28;20040;-73
2022/08/19 07:53:29;;;;;;;48.33;24.08;;;20.50;81.50;;;;;;5115123;28;20020;-73
2022/08/19 07:55:55;;;;;;;49.92;23.23;;;20.50;81.70;;;;;;5115044;28;20020;-74
2022/08/19 07:58:22;;;;;;;52.30;23.67;;;20.60;81.70;;;;;;5115111;28;20028;-74
2022/08/19 08:00:50;;;;;;;49.50;24.65;;;20.60;81.30;;;;;;5114925;28;20063;-74
2022/08/19 08:03:19;;;;;;;48.03;24.45;;;20.70;81.40;;;;;;5114874;28;20023;-73
2022/08/19 08:11:04;;;;;;;43.40;21.95;;;20.80;81.10;;;;;;5115018;28;20044;-74
2022/08/19 08:13:29;;;;;;;48.75;23.65;;;20.90;81.00;;;;;;5114685;28;20016;-74
2022/08/19 08:15:57;;;;;;;42.08;22.73;;;21.00;81.80;;;;;;5114600;28;20035;-74
2022/08/19 08:18:24;;;;;;;49.35;24.38;;;21.10;81.80;;;;;;5114253;28;20032;-74
2022/08/19 08:20:49;;;;;;;48.30;24.55;;;21.20;80.80;;;;;;5114549;28;20024;-74
2022/08/19 08:23:29;;;;;;;45.30;22.75;;;21.30;80.70;;;;;;5114507;28;20039;-74
2022/08/19 08:25:58;;;;;;;44.88;22.38;;;21.30;80.00;;;;;;5114628;28;20020;-74
2022/08/19 08:28:24;;;;;;;38.97;20.48;;;21.50;79.80;;;;;;5114241;28;20039;-74
2022/08/19 08:30:51;;;;;;;43.95;24.05;;;21.50;78.20;;;;;;5114384;28;20023;-74
2022/08/19 08:33:22;;;;;;;37.38;19.23;;;21.60;78.60;;;;;;5114324;28;20020;-74
2022/08/19 08:35:48;;;;;;;38.67;20.02;;;21.70;77.50;;;;;;5114494;28;20016;-73
2022/08/19 08:38:15;;;;;;;39.63;21.58;;;21.70;77.20;;;;;;5114235;28;20079;-74
2022/08/19 08:41:04;;;;;;;37.40;20.85;;;21.70;76.90;;;;;;5114188;28;20036;-74
2022/08/19 08:43:34;;;;;;;43.78;21.05;;;21.80;75.80;;;;;;5114194;28;20073;-74
2022/08/19 08:46:09;;;;;;;29.55;15.60;;;21.80;76.50;;;;;;5114136;28;20046;-74
2022/08/19 08:48:59;;;;;;;29.67;16.48;;;22.00;75.20;;;;;;5113954;28;20057;-74
2022/08/19 08:51:55;;;;;;;32.33;15.93;;;22.00;74.20;;;;;;5114018;28;20016;-74
2022/08/19 08:54:25;;;;;;;34.90;16.48;;;22.10;73.40;;;;;;5114114;28;20020;-74
2022/08/19 08:56:53;;;;;;;32.83;17.45;;;22.10;73.50;;;;;;5114132;28;20019;-74
2022/08/19 08:59:18;;;;;;;33.10;18.65;;;22.10;74.10;;;;;;5113874;28;20027;-74
2022/08/19 09:01:44;;;;;;;31.58;17.58;;;22.20;74.20;;;;;;5113865;28;20491;-74
2022/08/19 09:04:12;;;;;;;31.27;17.73;;;22.30;73.90;;;;;;5113808;28;20092;-74
2022/08/19 09:06:56;;;;;;;33.45;18.38;;;22.40;73.30;;;;;;5113752;28;20025;-74
2022/08/19 09:09:39;;;;;;;29.30;16.65;;;22.60;72.90;;;;;;5113513;28;20044;-74
2022/08/19 09:12:26;;;;;;;34.38;18.67;;;22.60;71.50;;;;;;5113772;28;20024;-74
2022/08/19 09:15:03;;;;;;;35.97;18.77;;;22.70;71.60;;;;;;5113837;28;20050;-74
2022/08/19 09:17:33;;;;;;;31.58;17.30;;;22.70;72.00;;;;;;5113796;28;20020;-74
2022/08/19 09:20:10;;;;;;;32.45;18.48;;;22.90;71.30;;;;;;5113615;28;20058;-74
2022/08/19 09:22:38;;;;;;;28.90;17.00;;;22.80;70.80;;;;;;5113526;28;20065;-74
2022/08/19 09:25:05;;;;;;;31.63;17.25;;;22.90;70.70;;;;;;5113537;28;20028;-73
2022/08/19 09:27:32;;;;;;;29.70;18.50;;;23.00;69.20;;;;;;5113536;28;20024;-74
2022/08/19 09:29:58;;;;;;;36.47;19.35;;;22.90;69.30;;;;;;5113095;28;20029;-73
2022/08/19 09:32:26;;;;;;;41.05;19.55;;;22.80;69.60;;;;;;5113165;28;20074;-74
2022/08/19 09:34:54;;;;;;;35.92;18.27;;;22.80;70.40;;;;;;5113462;28;20028;-74
2022/08/19 09:37:21;;;;;;;34.35;19.25;;;23.00;71.20;;;;;;5113440;28;20080;-73
2022/08/19 09:39:47;;;;;;;31.33;18.90;;;23.10;71.00;;;;;;5113403;28;20051;-74
2022/08/19 09:42:14;;;;;;;31.92;17.50;;;23.30;70.90;;;;;;5113406;28;20035;-73
2022/08/19 09:44:40;;;;;;;34.00;18.90;;;23.40;69.40;;;;;;5113380;28;20028;-74
2022/08/19 09:47:07;;;;;;;28.23;16.98;;;23.50;69.40;;;;;;5113320;28;20046;-74
2022/08/19 09:49:33;;;;;;;29.80;17.63;;;23.60;67.20;;;;;;5113247;28;20035;-73
2022/08/19 09:51:59;;;;;;;33.47;18.30;;;23.60;67.70;;;;;;5113302;28;20020;-73
2022/08/19 09:54:26;;;;;;;34.60;19.92;;;23.60;66.70;;;;;;5113280;28;20025;-73
2022/08/19 09:56:53;;;;;;;38.95;20.60;;;23.50;67.80;;;;;;5113277;28;20556;-73
2022/08/19 09:59:18;;;;;;;33.63;19.65;;;23.50;68.50;;;;;;5113202;28;20020;-73
2022/08/19 10:01:44;;;;;;;36.10;19.98;;;23.60;69.40;;;;;;5113323;28;20039;-73
2022/08/19 10:04:10;;;;;;;32.90;18.73;;;23.60;68.20;;;;;;5113185;28;20024;-73
2022/08/19 10:06:39;;;;;;;32.67;18.55;;;23.60;67.70;;;;;;5113180;28;20095;-73
2022/08/19 10:09:07;;;;;;;32.03;18.10;;;23.60;67.00;;;;;;5112887;28;20047;-73
2022/08/19 10:11:34;;;;;;;30.95;17.65;;;23.50;67.00;;;;;;5113184;28;20021;-73
2022/08/19 10:14:01;;;;;;;28.58;16.73;;;23.40;66.90;;;;;;5113153;28;20028;-73
2022/08/19 10:16:26;;;;;;;30.77;16.63;;;23.40;66.70;;;;;;5113196;28;20024;-73
2022/08/19 10:18:53;;;;;;;27.20;15.85;;;23.50;66.70;;;;;;5112999;28;20032;-73
2022/08/19 10:21:21;;;;;;;29.60;15.20;;;23.50;67.00;;;;;;5113022;28;20027;-73
2022/08/19 10:23:49;;;;;;;28.88;14.65;;;23.60;66.20;;;;;;5113008;28;20024;-73
2022/08/19 10:26:20;;;;;;;26.45;15.85;;;23.60;65.80;;;;;;5113020;28;20081;-74
2022/08/19 10:28:46;;;;;;;26.48;15.38;;;23.70;66.00;;;;;;5112856;28;20021;-74
2022/08/19 10:31:14;;;;;;;26.95;15.32;;;23.70;65.40;;;;;;5112933;28;20027;-73
2022/08/19 10:33:41;;;;;;;28.17;15.65;;;23.70;65.10;;;;;;5112911;28;20099;-73
2022/08/19 10:36:18;;;;;;;26.25;15.30;;;23.80;66.00;;;;;;5112895;28;20028;-73
2022/08/19 10:38:50;;;;;;;30.42;15.52;;;23.80;63.70;;;;;;5112879;28;20054;-73
2022/08/19 10:41:18;;;;;;;;;;;23.80;65.40;;;;;;5113319;28;20024;-73
2022/08/19 10:43:44;;;;;;;31.70;16.00;;;23.90;65.40;;;;;;5116439;28;19958;-73
2022/08/19 10:46:13;;;;;;;27.55;15.57;;;24.00;65.70;;;;;;5115363;28;20051;-73
2022/08/19 10:48:38;;;;;;;29.58;16.25;;;24.10;65.30;;;;;;5116238;28;20020;-73
2022/08/19 10:53:49;;;;;;;25.52;14.43;;;24.10;64.30;;;;;;5116409;28;20046;-73
2022/08/19 10:59:00;;;;;;;24.67;13.20;;;24.20;63.10;;;;;;5116452;28;20058;-74
2022/08/19 11:01:26;;;;;;;26.65;13.55;;;24.20;62.10;;;;;;5115179;28;20024;-73
2022/08/19 11:03:52;;;;;;;22.85;13.45;;;24.20;62.90;;;;;;5116070;28;20028;-74
2022/08/19 11:06:20;;;;;;;24.08;12.65;;;24.10;62.80;;;;;;5116040;28;20047;-74
2022/08/19 11:08:45;;;;;;;22.45;11.93;;;24.00;62.90;;;;;;5115693;28;20053;-74
2022/08/19 11:11:12;;;;;;;21.67;13.15;;;24.10;63.30;;;;;;5115972;28;20048;-74
2022/08/19 11:13:40;;;;;;;22.63;12.80;;;24.10;62.80;;;;;;5115883;28;20024;-73
2022/08/19 11:16:13;;;;;;;24.90;14.00;;;24.30;63.00;;;;;;5115864;28;20508;-72
2022/08/19 11:18:44;;;;;;;25.08;14.07;;;24.30;62.90;;;;;;5115818;28;20110;-73
2022/08/19 11:21:27;;;;;;;27.05;15.15;;;24.50;62.90;;;;;;5115849;28;20027;-74
2022/08/19 11:23:55;;;;;;;28.73;15.95;;;24.60;62.10;;;;;;5115697;28;20016;-74
2022/08/19 11:26:22;;;;;;;22.60;13.32;;;24.40;62.70;;;;;;5115678;28;20031;-74
2022/08/19 11:28:50;;;;;;;26.08;14.80;;;24.50;63.10;;;;;;5115464;28;20032;-72
2022/08/19 11:31:20;;;;;;;24.38;14.45;;;24.60;62.80;;;;;;5115563;28;20020;-73
2022/08/19 11:33:46;;;;;;;24.85;14.70;;;24.70;63.00;;;;;;5115510;28;20022;-73
2022/08/19 11:36:13;;;;;;;26.08;14.73;;;24.80;62.50;;;;;;5115469;28;20031;-73
2022/08/19 11:38:38;;;;;;;30.30;15.43;;;24.90;62.40;;;;;;5115379;28;20040;-73
2022/08/19 11:41:09;;;;;;;29.88;15.93;;;24.90;61.90;;;;;;5115361;28;20058;-73
2022/08/19 11:43:36;;;;;;;24.88;15.15;;;24.90;61.50;;;;;;5115359;28;20024;-73
2022/08/19 11:46:06;;;;;;;24.90;13.20;;;24.90;61.50;;;;;;5115307;28;20020;-73
2022/08/19 11:48:32;;;;;;;21.83;12.80;;;25.00;60.50;;;;;;5115148;28;20107;-73
2022/08/19 11:50:58;;;;;;;18.70;10.95;;;25.10;59.70;;;;;;5115204;28;20024;-73
2022/08/19 11:53:24;;;;;;;21.45;11.10;;;25.20;59.70;;;;;;5114437;28;20141;-73
2022/08/19 11:55:55;;;;;;;23.92;12.82;;;25.20;59.40;;;;;;5115079;28;20031;-73
2022/08/19 11:58:21;;;;;;;25.70;13.53;;;25.40;60.20;;;;;;5115127;28;20016;-73
2022/08/19 12:00:47;;;;;;;23.33;13.82;;;25.50;60.20;;;;;;5114956;28;20345;-73
2022/08/19 12:03:13;;;;;;;22.77;12.20;;;25.50;60.50;;;;;;5114875;28;20029;-73
2022/08/19 12:05:41;;;;;;;23.52;13.07;;;25.60;60.10;;;;;;5114871;28;20025;-73
2022/08/19 12:08:07;;;;;;;20.38;12.45;;;25.70;58.80;;;;;;5114729;28;20016;-73
2022/08/19 12:10:34;;;;;;;23.80;14.70;;;25.80;58.60;;;;;;5114688;28;20052;-73
2022/08/19 12:12:59;;;;;;;23.60;14.80;;;25.80;58.10;;;;;;5113736;28;20032;-73
2022/08/19 12:15:27;;;;;;;23.27;13.52;;;25.70;59.00;;;;;;5113636;28;20024;-73
2022/08/19 12:17:56;;;;;;;24.88;11.95;;;25.80;59.30;;;;;;5114665;28;20031;-72
2022/08/19 12:20:22;;;;;;;23.98;14.10;;;25.80;59.70;;;;;;5113668;28;20050;-73
2022/08/19 12:22:48;;;;;;;24.00;14.45;;;25.80;58.60;;;;;;5114527;28;20099;-73
2022/08/19 12:25:14;;;;;;;23.40;13.70;;;25.60;58.20;;;;;;5113524;28;20028;-73
2022/08/19 12:27:39;;;;;;;23.35;14.02;;;25.50;58.90;;;;;;5114456;28;20024;-73
2022/08/19 12:30:07;;;;;;;23.88;14.30;;;25.60;58.80;;;;;;5114210;28;20032;-73
2022/08/19 12:32:33;;;;;;;27.40;14.20;;;25.80;58.60;;;;;;5114387;28;20020;-72
2022/08/19 12:34:59;;;;;;;21.63;12.80;;;25.90;59.00;;;;;;5114302;28;20028;-73
2022/08/19 12:37:25;;;;;;;22.33;13.90;;;26.00;58.10;;;;;;5114288;28;20031;-73
2022/08/19 12:39:50;;;;;;;25.25;13.95;;;26.00;57.80;;;;;;5114255;28;20020;-73
2022/08/19 12:42:17;;;;;;;20.48;11.75;;;26.00;57.80;;;;;;5114190;28;20483;-73
2022/08/19 12:44:44;;;;;;;20.27;12.30;;;26.00;57.80;;;;;;5114159;28;20027;-73
2022/08/19 12:47:11;;;;;;;20.27;12.80;;;26.10;57.80;;;;;;5114212;28;20031;-72
2022/08/19 12:49:38;;;;;;;26.75;13.70;;;26.20;57.30;;;;;;5113993;28;20039;-72